createdAt,value
2022-08-24T00:02:03.207Z,18.82
2022-08-24T00:07:13.800Z,18.84
2022-08-24T00:12:32.522Z,18.83
2022-08-24T00:17:35.285Z,18.79
2022-08-24T00:22:38.932Z,18.71
2022-08-24T00:27:43.261Z,18.68
2022-08-24T00:32:47.535Z,18.60
2022-08-24T00:37:51.576Z,18.62
2022-08-24T00:42:56.518Z,18.64
2022-08-24T00:48:01.000Z,18.54
2022-08-24T00:53:07.057Z,18.36
2022-08-24T00:58:17.136Z,18.34
2022-08-24T01:03:22.383Z,18.45
2022-08-24T01:08:26.158Z,18.34
2022-08-24T01:13:31.473Z,18.27
2022-08-24T01:18:52.844Z,18.22
2022-08-24T01:23:59.837Z,18.27
2022-08-24T01:29:04.900Z,18.18
2022-08-24T01:34:09.074Z,18.10
2022-08-24T01:39:15.445Z,18.05
2022-08-24T01:44:18.422Z,18.08
2022-08-24T01:49:22.425Z,18.01
2022-08-24T01:54:26.978Z,18.05
2022-08-24T01:59:29.977Z,18.04
2022-08-24T02:04:34.491Z,17.91
2022-08-24T02:09:39.030Z,17.86
2022-08-24T02:14:42.797Z,17.81
2022-08-24T02:19:48.062Z,17.73
2022-08-24T02:24:52.237Z,17.79
2022-08-24T02:29:55.039Z,17.86
2022-08-24T02:34:58.006Z,17.71
2022-08-24T02:40:02.338Z,17.61
2022-08-24T02:45:06.563Z,17.54
2022-08-24T02:50:12.415Z,17.51
2022-08-24T02:55:20.031Z,17.57
2022-08-24T03:00:23.965Z,17.53
2022-08-24T03:05:27.408Z,17.56
2022-08-24T03:10:32.986Z,17.58
2022-08-24T03:15:36.110Z,17.57
2022-08-24T03:20:38.950Z,17.56
2022-08-24T03:25:43.265Z,17.51
2022-08-24T03:30:46.843Z,17.32
2022-08-24T03:35:53.307Z,17.21
2022-08-24T03:40:59.381Z,17.14
2022-08-24T03:46:03.093Z,17.10
2022-08-24T03:51:06.251Z,17.17
2022-08-24T03:56:10.893Z,17.06
2022-08-24T04:01:14.821Z,17.09
2022-08-24T04:06:19.757Z,17.05
2022-08-24T04:11:25.910Z,16.90
2022-08-24T04:16:29.636Z,16.93
2022-08-24T04:21:44.475Z,16.97
2022-08-24T04:26:49.840Z,16.86
2022-08-24T04:31:53.539Z,16.83
2022-08-24T04:36:57.213Z,16.96
2022-08-24T04:42:03.287Z,16.99
2022-08-24T04:47:10.551Z,16.92
2022-08-24T04:52:14.482Z,16.96
2022-08-24T04:57:19.923Z,17.03
2022-08-24T05:02:24.475Z,17.05
2022-08-24T05:07:29.988Z,17.04
2022-08-24T05:12:34.623Z,17.08
2022-08-24T05:17:41.416Z,17.20
2022-08-24T05:22:46.467Z,17.30
2022-08-24T05:27:51.524Z,17.41
2022-08-24T05:32:54.386Z,17.51
2022-08-24T05:37:57.292Z,17.64
2022-08-24T05:43:09.551Z,17.69
2022-08-24T05:48:12.561Z,17.82
2022-08-24T05:53:41.670Z,17.94
2022-08-24T05:58:46.240Z,18.05
2022-08-24T06:03:49.618Z,18.10
2022-08-24T06:08:55.045Z,18.16
2022-08-24T06:14:02.279Z,18.24
2022-08-24T06:19:13.187Z,18.27
2022-08-24T06:24:16.838Z,18.37
2022-08-24T06:29:23.286Z,18.45
2022-08-24T06:34:30.643Z,18.52
2022-08-24T06:39:33.646Z,18.64
2022-08-24T06:44:39.424Z,18.67
2022-08-24T06:49:51.263Z,18.71
2022-08-24T06:54:54.162Z,18.84
2022-08-24T06:59:58.456Z,18.99
2022-08-24T07:05:01.318Z,19.11
2022-08-24T07:10:25.277Z,19.22
2022-08-24T07:15:33.146Z,19.31
2022-08-24T07:20:49.183Z,19.39
2022-08-24T07:26:06.911Z,19.48
2022-08-24T07:31:13.737Z,19.61
2022-08-24T07:36:24.613Z,19.74
2022-08-24T07:42:11.106Z,19.87
2022-08-24T07:46:56.046Z,20.02
2022-08-24T07:51:59.029Z,20.07
2022-08-24T07:57:04.164Z,20.16
2022-08-24T08:02:11.191Z,20.33
2022-08-24T08:07:14.572Z,20.44
2022-08-24T08:12:17.721Z,20.54
2022-08-24T08:17:31.854Z,20.68
2022-08-24T08:22:53.028Z,20.74
2022-08-24T08:28:25.102Z,20.90
2022-08-24T08:33:31.817Z,21.04
2022-08-24T08:38:35.408Z,21.15
2022-08-24T08:43:44.012Z,21.28
2022-08-24T08:49:02.938Z,21.49
2022-08-24T08:54:19.104Z,21.76
2022-08-24T08:59:34.870Z,22.00
2022-08-24T09:04:55.283Z,22.25
2022-08-24T09:10:19.214Z,22.34
2022-08-24T09:15:35.461Z,22.65
2022-08-24T09:21:03.366Z,22.76
2022-08-24T09:26:11.059Z,22.62
2022-08-24T09:31:46.908Z,22.71
2022-08-24T09:36:56.820Z,22.76
2022-08-24T09:42:36.248Z,23.03
2022-08-24T09:48:04.521Z,23.21
2022-08-24T09:53:35.322Z,23.34
2022-08-24T09:58:45.993Z,23.79
2022-08-24T10:03:57.141Z,23.93
2022-08-24T10:09:15.948Z,23.68
2022-08-24T10:14:51.598Z,23.36
2022-08-24T10:20:05.041Z,23.17
2022-08-24T10:25:24.729Z,23.05
2022-08-24T10:30:48.629Z,23.40
2022-08-24T10:36:14.101Z,23.61
2022-08-24T10:41:39.349Z,23.75
2022-08-24T10:46:50.101Z,24.06
2022-08-24T10:52:08.505Z,24.14
2022-08-24T10:57:17.123Z,24.31
2022-08-24T11:02:31.165Z,24.56
2022-08-24T11:07:34.307Z,24.58
2022-08-24T11:12:41.825Z,24.75
2022-08-24T11:17:55.195Z,25.07
2022-08-24T11:23:02.217Z,25.19
2022-08-24T11:28:09.630Z,25.49
2022-08-24T11:33:27.637Z,25.94
2022-08-24T11:38:35.364Z,26.38
2022-08-24T11:43:54.863Z,26.82
2022-08-24T11:49:04.885Z,28.30
2022-08-24T11:54:19.373Z,29.21
2022-08-24T11:59:34.139Z,29.69
2022-08-24T12:04:51.139Z,31.83
2022-08-24T12:10:07.665Z,30.71
2022-08-24T12:15:14.568Z,31.28
2022-08-24T12:20:25.293Z,29.22
2022-08-24T12:25:49.156Z,27.28
2022-08-24T12:30:53.907Z,26.26
2022-08-24T12:36:00.920Z,26.26
2022-08-24T12:41:17.691Z,27.53
2022-08-24T12:46:25.405Z,29.57
2022-08-24T12:51:33.710Z,30.23
2022-08-24T12:56:53.167Z,30.33
2022-08-24T13:02:03.924Z,30.37
2022-08-24T13:07:09.694Z,30.61
2022-08-24T13:13:03.160Z,30.82
2022-08-24T13:18:44.922Z,31.03
2022-08-24T13:24:27.592Z,31.44
2022-08-24T13:29:35.236Z,31.46
2022-08-24T13:34:42.566Z,29.94
2022-08-24T13:39:59.749Z,28.45
2022-08-24T13:45:24.272Z,27.72
2022-08-24T13:50:34.653Z,29.04
2022-08-24T13:55:46.388Z,28.43
2022-08-24T14:00:52.940Z,28.06
2022-08-24T14:05:59.772Z,29.38
2022-08-24T14:11:10.627Z,30.18
2022-08-24T14:16:47.513Z,30.92
2022-08-24T14:21:54.986Z,31.01
2022-08-24T14:27:11.485Z,29.16
2022-08-24T14:32:37.254Z,28.26
2022-08-24T14:37:54.649Z,27.64
2022-08-24T14:43:09.214Z,28.29
2022-08-24T14:48:25.268Z,30.18
2022-08-24T14:53:44.405Z,30.93
2022-08-24T14:58:54.297Z,31.54
2022-08-24T15:04:36.182Z,31.84
2022-08-24T15:09:44.966Z,31.96
2022-08-24T15:14:52.963Z,31.58
2022-08-24T15:20:03.690Z,31.39
2022-08-24T15:25:13.306Z,30.72
2022-08-24T15:30:25.856Z,30.32
2022-08-24T15:35:32.598Z,30.13
2022-08-24T15:40:35.452Z,30.32
2022-08-24T15:45:51.349Z,30.18
2022-08-24T15:50:55.945Z,30.17
2022-08-24T15:55:59.155Z,30.40
2022-08-24T16:01:40.071Z,30.67
2022-08-24T16:06:45.253Z,30.46
2022-08-24T16:11:52.458Z,29.71
2022-08-24T16:16:57.642Z,29.39
2022-08-24T16:22:02.538Z,28.99
2022-08-24T16:27:07.855Z,28.44
2022-08-24T16:32:21.593Z,27.93
2022-08-24T16:37:34.451Z,27.58
2022-08-24T16:42:37.957Z,27.10
2022-08-24T16:47:42.208Z,27.07
2022-08-24T16:52:45.177Z,26.84
2022-08-24T16:57:48.250Z,27.00
2022-08-24T17:02:52.466Z,26.83
2022-08-24T17:07:55.350Z,26.57
2022-08-24T17:12:58.900Z,26.45
2022-08-24T17:18:05.010Z,26.41
2022-08-24T17:23:08.463Z,26.34
2022-08-24T17:28:11.607Z,26.24
2022-08-24T17:33:15.935Z,26.18
2022-08-24T17:38:18.664Z,26.04
2022-08-24T17:43:21.439Z,25.86
2022-08-24T17:48:26.929Z,25.66
2022-08-24T17:53:29.659Z,25.47
2022-08-24T17:58:32.385Z,25.29
2022-08-24T18:03:36.552Z,25.09
2022-08-24T18:08:39.342Z,24.93
2022-08-24T18:13:42.180Z,24.80
2022-08-24T18:18:46.605Z,24.67
2022-08-24T18:23:50.331Z,24.57
2022-08-24T18:28:53.503Z,24.49
2022-08-24T18:33:57.944Z,24.38
2022-08-24T18:39:05.003Z,24.29
2022-08-24T18:44:13.479Z,24.24
2022-08-24T18:49:21.485Z,24.12
2022-08-24T18:54:26.947Z,24.04
2022-08-24T18:59:29.671Z,24.00
2022-08-24T19:04:33.998Z,23.91
2022-08-24T19:09:36.931Z,23.81
2022-08-24T19:14:43.429Z,23.73
2022-08-24T19:19:50.425Z,23.66
2022-08-24T19:24:53.565Z,23.58
2022-08-24T19:29:56.599Z,23.51
2022-08-24T19:35:00.900Z,23.40
2022-08-24T19:40:04.550Z,23.34
2022-08-24T19:45:40.008Z,23.34
2022-08-24T19:50:44.248Z,23.22
2022-08-24T19:55:50.081Z,23.17
2022-08-24T20:00:57.483Z,23.05
2022-08-24T20:06:01.652Z,22.91
2022-08-24T20:11:04.356Z,22.84
2022-08-24T20:16:10.471Z,22.75
2022-08-24T20:21:15.849Z,22.74
2022-08-24T20:26:18.641Z,22.75
2022-08-24T20:31:28.098Z,22.66
2022-08-24T20:36:36.373Z,22.53
2022-08-24T20:41:40.585Z,22.55
2022-08-24T20:46:46.571Z,22.53
2022-08-24T20:51:50.930Z,22.43
2022-08-24T20:56:53.751Z,22.34
2022-08-24T21:01:56.814Z,22.28
2022-08-24T21:07:00.986Z,22.27
2022-08-24T21:12:04.289Z,22.19
2022-08-24T21:17:07.154Z,22.11
2022-08-24T21:22:11.831Z,22.11
2022-08-24T21:27:17.532Z,22.06
2022-08-24T21:32:37.758Z,22.01
2022-08-24T21:37:42.195Z,21.92
2022-08-24T21:42:45.463Z,21.86
2022-08-24T21:47:49.677Z,21.83
2022-08-24T21:52:54.488Z,21.79
2022-08-24T21:57:57.623Z,21.72
2022-08-24T22:03:00.565Z,21.70
2022-08-24T22:08:05.119Z,21.69
2022-08-24T22:13:08.071Z,21.66
2022-08-24T22:18:11.093Z,21.59
2022-08-24T22:23:15.152Z,21.58
2022-08-24T22:28:18.322Z,21.53
2022-08-24T22:33:21.386Z,21.49
2022-08-24T22:38:25.590Z,21.43
2022-08-24T22:43:48.833Z,21.36
2022-08-24T22:48:54.534Z,21.35
2022-08-24T22:53:59.070Z,21.33
2022-08-24T22:59:02.440Z,21.28
2022-08-24T23:04:08.099Z,21.23
2022-08-24T23:09:12.581Z,21.24
2022-08-24T23:14:16.475Z,21.20
2022-08-24T23:19:39.017Z,21.17
2022-08-24T23:24:44.708Z,21.14
2022-08-24T23:29:49.432Z,21.10
2022-08-24T23:34:52.188Z,21.04
2022-08-24T23:39:56.268Z,21.02
2022-08-24T23:44:59.331Z,20.96
2022-08-24T23:50:02.744Z,20.93
2022-08-24T23:55:21.033Z,20.90
